Elsinore, Utah
Current Conditions -  °F | °C
As of 8:52 PM on Wednesday 26 Nov 2014 (Local Time) from KMLF Reporting Station
Clear Clear  
Wind Chill: 28°   Ceiling: Unl
Heat Index: 33°   Visibility: 10mi
Dew Point: 21°   Wind: 6mph
Humidity: 61%   Direction: 210°SSW
Pressure: 30.4"   Gusts: NA
Location:  38.68°N, 112.15°W
Report Text: KMLF 270352Z AUTO 21005KT 10SM CLR 01/M06 A3040 RMK AO2 SLP310 T00061061 TSNO
Loading
Personal Weather Stations






























Interactive Weather Map New forecast layout! Learn more

10-Day Weather Forecast

Advertisements
Track Severe Weather on mobile